首页
METAR-TAF:

METAR-TAF

机场 :

安曼民航機場

安曼, 约旦

纬度: 31-59N, 经度: 035-59E, 海拔: 767米

当前天气观测

该预报发布于41分钟前的18:00 UTC
静风
温度 29°C
湿度 35%
气压 1011 hPa
能見度: 5000

METAR: OJAM 231800Z 00000KT 5000 HZ NSC 29/12 Q1011 NOSIG

时间: 21:41 (18:41 UTC)

预报

该预报发布于1小时和41分钟前的17:00 UTC
预报有效从23日的 18点(UTC)到 24日的 24点(UTC)
风速6节,风向西北
能見度: 6000

TAF: OJAM 231700Z 2318/2424 32006KT 6000 NSC

超过4000个机场的气象观测和天气预报(METAR&TAF报告)。

可查询的气象台以黄色和红色小点在地图上表示。

将鼠标移到小点上方,可查看气象台名称。

然后点击查看天气观测和预报。

如需切换地图:点击带黑十字的绿色按钮放大地图;点击带横线的绿色按钮缩小地图;或者点击绿色箭头查看邻近地区的地图。


METAR-TAF: